Time;durP1;ratioP1;P1;durP2;ratioP2;P2;SDS_P1;SDS_P2;PMS_P1;PMS_P2;Temp;Humidity;BMP_temperature;BMP_pressure;BME280_temperature;BME280_humidity;BME280_pressure;Samples;Min_cycle;Max_cycle;Signal;HPM_P1;HPM_P2
2021/12/20 00:01:38;;;;;;;17.00;8.73;;;;;;;2.28;96.43;98556.41;4912492;29;20531;-86
2021/12/20 00:04:04;;;;;;;14.63;7.03;;;;;;;1.81;94.30;98447.78;4927731;29;20202;-86
2021/12/20 00:06:30;;;;;;;12.50;5.43;;;;;;;3.49;92.19;98658.75;4922747;29;20429;-86
2021/12/20 00:08:55;;;;;;;15.33;8.30;;;;;;;3.63;91.64;98652.03;4907265;29;20422;-86
2021/12/20 00:11:22;;;;;;;13.57;4.90;;;;;;;3.62;91.32;98638.69;4924623;29;20253;-84
2021/12/20 00:13:48;;;;;;;7.60;4.43;;;;;;;3.64;90.03;98614.63;4910193;29;20318;-86
2021/12/20 00:16:14;;;;;;;9.23;5.70;;;;;;;3.74;89.79;98580.94;4910269;29;20422;-86
2021/12/20 00:18:41;;;;;;;11.47;5.63;;;;;;;3.84;87.68;98529.03;4925915;29;20170;-87
2021/12/20 00:21:08;;;;;;;9.67;4.83;;;;;;;5.01;85.45;98646.50;4951388;29;20184;-87
2021/12/20 00:23:33;;;;;;;11.27;6.30;;;;;;;3.38;84.67;98350.47;4972758;29;20515;-85
2021/12/20 00:25:58;;;;;;;9.00;5.07;;;;;;;5.04;85.74;98668.38;4959233;28;20503;-86
2021/12/20 00:28:24;;;;;;;9.80;5.47;;;;;;;5.06;85.21;98672.69;4973726;29;20224;-86
2021/12/20 00:30:49;;;;;;;9.67;6.03;;;;;;;3.72;85.40;98469.91;4948678;29;20191;-88
2021/12/20 00:33:16;;;;;;;9.57;6.10;;;;;;;4.41;85.85;98573.03;4967198;29;20661;-86
2021/12/20 00:35:42;;;;;;;15.43;7.40;;;;;;;2.64;85.91;98308.81;4948944;29;20665;-86
2021/12/20 00:40:51;;;;;;;10.43;5.60;;;;;;;3.32;87.83;98484.34;4965422;29;20179;-87
2021/12/20 00:43:19;;;;;;;14.90;7.50;;;;;;;4.71;88.20;98684.97;4964603;29;20447;-88
2021/12/20 00:45:44;;;;;;;14.37;8.27;;;;;;;4.10;88.46;98573.00;4932429;29;20265;-88
2021/12/20 00:48:10;;;;;;;14.63;7.90;;;;;;;1.93;88.30;98209.84;4948594;29;20428;-86
2021/12/20 00:50:40;;;;;;;15.13;8.20;;;;;;;5.03;88.49;98671.63;4965118;29;20173;-86
2021/12/20 00:53:07;;;;;;;12.33;7.77;;;;;;;4.41;87.12;98561.38;4947609;29;20428;-87
2021/12/20 00:55:32;;;;;;;13.43;7.30;;;;;;;5.31;86.49;98672.31;4965222;29;20404;-86
2021/12/20 00:57:59;;;;;;;15.13;8.63;;;;;;;5.30;86.75;98668.09;4964928;29;20963;-86
2021/12/20 01:00:28;;;;;;;13.10;7.03;;;;;;;5.16;88.03;98674.03;4948331;29;20173;-86
2021/12/20 01:02:55;;;;;;;11.40;6.70;;;;;;;5.06;89.21;98692.75;4946841;29;20800;-87
2021/12/20 01:05:22;;;;;;;16.73;8.60;;;;;;;2.14;89.68;98220.22;4945316;29;20436;-86
2021/12/20 01:07:48;;;;;;;15.37;9.10;;;;;;;3.42;91.10;98477.44;4947422;29;20444;-87
2021/12/20 01:10:15;;;;;;;13.20;7.43;;;;;;;3.46;91.16;98483.50;4964589;29;20504;-86
2021/12/20 01:12:46;;;;;;;11.30;6.97;;;;;;;4.99;89.07;98688.19;4947731;29;20443;-86
2021/12/20 01:15:16;;;;;;;11.37;6.13;;;;;;;4.25;87.66;98503.72;4947152;29;20972;-86
2021/12/20 01:17:41;;;;;;;11.27;6.10;;;;;;;2.64;87.21;98256.38;4944695;29;20412;-86
2021/12/20 01:20:09;;;;;;;14.20;8.23;;;;;;;4.77;88.02;98582.53;4945694;29;20423;-86
2021/12/20 01:22:36;;;;;;;12.17;7.50;;;;;;;4.45;88.22;98552.38;4964340;29;20577;-86
2021/12/20 01:25:02;;;;;;;11.87;7.70;;;;;;;5.24;87.93;98651.09;4964526;29;20448;-87
2021/12/20 01:27:27;;;;;;;10.80;7.00;;;;;;;5.26;87.70;98652.00;4964052;29;20435;-87
2021/12/20 01:29:53;;;;;;;14.93;8.07;;;;;;;5.38;87.10;98647.63;4946787;29;20278;-87
2021/12/20 01:32:18;;;;;;;10.03;6.37;;;;;;;4.50;87.15;98493.34;4947986;29;20684;-87
2021/12/20 01:34:44;;;;;;;12.37;7.17;;;;;;;3.80;85.98;98361.91;4930938;29;20424;-87
2021/12/20 01:37:13;;;;;;;13.17;6.97;;;;;;;4.00;85.16;98383.88;4963940;29;20188;-87
2021/12/20 01:39:40;;;;;;;10.33;6.27;;;;;;;5.59;85.53;98636.94;4960357;29;20167;-87
2021/12/20 01:42:07;;;;;;;10.50;6.83;;;;;;;4.08;85.04;98382.63;4931541;29;20452;-87
2021/12/20 01:44:33;;;;;;;11.30;6.60;;;;;;;4.86;86.14;98537.00;4965035;29;20923;-86
2021/12/20 01:47:01;;;;;;;13.27;7.70;;;;;;;5.50;86.00;98651.53;4943902;29;20455;-89
2021/12/20 01:49:28;;;;;;;11.13;5.97;;;;;;;5.31;86.10;98602.94;4926550;29;20184;-86
2021/12/20 01:54:25;;;;;;;9.30;5.17;;;;;;;5.54;86.06;98624.19;4963813;29;20401;-86
2021/12/20 01:56:51;;;;;;;10.43;6.03;;;;;;;5.23;85.92;98571.56;4946834;29;20780;-86
2021/12/20 01:59:18;;;;;;;11.93;5.47;;;;;;;5.26;85.91;98548.28;4963649;29;20188;-86
2021/12/20 02:01:45;;;;;;;9.83;5.70;;;;;;;4.62;85.04;98464.75;4964804;29;20195;-86
2021/12/20 02:04:13;;;;;;;9.53;5.47;;;;;;;4.94;85.39;98494.00;4947397;29;20468;-86
2021/12/20 02:06:40;;;;;;;7.07;4.50;;;;;;;5.69;85.25;98634.97;4947120;29;20409;-86
2021/12/20 02:09:11;;;;;;;9.43;5.20;;;;;;;5.77;84.97;98638.72;4964588;29;20412;-86
2021/12/20 02:11:38;;;;;;;9.43;5.90;;;;;;;5.18;85.35;98547.03;4947599;29;20436;-86
2021/12/20 02:14:07;;;;;;;10.77;5.20;;;;;;;3.21;85.20;98207.81;4946443;29;20427;-86
2021/12/20 02:16:33;;;;;;;12.40;6.87;;;;;;;4.08;86.17;98365.09;4946358;29;20440;-86
2021/12/20 02:19:10;;;;;;;12.03;6.53;;;;;;;4.74;86.74;98503.00;4952683;29;20423;-84
2021/12/20 02:21:37;;;;;;;9.80;6.23;;;;;;;3.79;87.09;98335.16;4951879;29;20420;-86
2021/12/20 02:24:03;;;;;;;9.90;6.30;;;;;;;5.58;87.54;98641.09;4963858;29;20468;-86
2021/12/20 02:26:30;;;;;;;10.27;6.10;;;;;;;5.18;88.19;98588.03;4933184;29;20432;-86
2021/12/20 02:28:59;;;;;;;8.43;5.23;;;;;;;4.76;86.60;98516.47;4969678;29;20475;-86
2021/12/20 02:37:04;;;;;;;12.77;6.00;;;;;;;5.96;85.30;98663.13;4959281;29;20411;-86
2021/12/20 02:39:31;;;;;;;9.77;6.17;;;;;;;5.99;85.49;98672.50;4955540;29;20502;-88
2021/12/20 02:41:57;;;;;;;9.53;6.07;;;;;;;6.00;85.81;98674.19;4941523;29;20821;-86
2021/12/20 02:44:24;;;;;;;7.83;4.87;;;;;;;5.93;85.90;98671.38;4940711;29;20531;-87
2021/12/20 02:47:16;;;;;;;8.10;4.67;;;;;;;5.25;86.21;98557.44;4958348;29;20172;-86
2021/12/20 02:49:43;;;;;;;9.57;5.63;;;;;;;5.78;86.83;98672.25;4958034;29;20499;-86
2021/12/20 02:52:12;;;;;;;8.93;5.03;;;;;;;4.09;86.86;98404.34;4925417;29;20424;-86
2021/12/20 02:54:39;;;;;;;8.10;3.73;;;;;;;5.18;86.75;98603.09;4958526;29;20488;-86
2021/12/20 02:57:07;;;;;;;10.10;5.73;;;;;;;3.97;86.43;98411.25;4940741;29;20539;-86
2021/12/20 02:59:34;;;;;;;10.20;6.03;;;;;;;5.66;86.96;98664.09;4940927;29;20522;-86
2021/12/20 03:02:07;;;;;;;11.57;6.40;;;;;;;5.37;86.17;98599.88;4958167;29;20409;-86
2021/12/20 03:04:33;;;;;;;12.13;7.20;;;;;;;4.22;86.14;98397.50;4941250;29;21066;-86
2021/12/20 03:07:05;;;;;;;10.47;6.57;;;;;;;5.89;85.58;98687.09;4959529;29;20467;-86
2021/12/20 03:09:36;;;;;;;11.87;6.60;;;;;;;4.03;84.92;98331.44;4958736;29;20415;-86
2021/12/20 03:12:04;;;;;;;9.47;5.40;;;;;;;5.60;84.97;98601.03;4941497;29;20417;-86
2021/12/20 03:14:36;;;;;;;9.80;5.30;;;;;;;5.98;85.13;98669.13;4939805;29;20428;-87
2021/12/20 03:17:03;;;;;;;10.47;6.83;;;;;;;4.68;84.88;98461.72;4944139;29;20482;-86
2021/12/20 03:19:28;;;;;;;9.70;5.83;;;;;;;3.33;84.50;98226.81;4957771;29;20516;-86
2021/12/20 03:21:55;;;;;;;8.97;5.60;;;;;;;5.68;84.71;98619.84;4940527;29;20440;-86
2021/12/20 03:24:22;;;;;;;8.33;5.07;;;;;;;4.01;83.66;98307.97;4940052;29;20259;-86
2021/12/20 03:26:49;;;;;;;9.67;5.83;;;;;;;6.11;83.84;98665.53;4957283;29;20420;-86
2021/12/20 03:29:14;;;;;;;9.33;4.17;;;;;;;5.73;83.99;98605.88;4956830;28;20550;-87
2021/12/20 03:31:41;;;;;;;12.43;5.63;;;;;;;5.69;83.76;98606.50;4956982;29;20291;-86
2021/12/20 03:34:09;;;;;;;11.80;6.37;;;;;;;6.02;83.42;98665.09;4957061;29;20606;-85
2021/12/20 03:36:34;;;;;;;16.83;8.47;;;;;;;4.34;84.11;98383.09;4939987;29;20464;-86
2021/12/20 03:39:04;;;;;;;10.90;5.87;;;;;;;5.75;82.98;98615.19;4940266;29;20451;-86
2021/12/20 03:41:29;;;;;;;10.30;5.20;;;;;;;5.76;82.91;98606.03;4940387;29;20188;-87
2021/12/20 03:43:55;;;;;;;8.23;4.63;;;;;;;4.75;82.48;98428.66;4941143;29;20496;-84
2021/12/20 03:46:22;;;;;;;7.97;4.60;;;;;;;5.98;82.97;98635.59;4957827;29;20232;-87
2021/12/20 03:48:47;;;;;;;10.03;5.03;;;;;;;6.04;82.61;98664.41;4968949;29;20184;-87
2021/12/20 03:51:14;;;;;;;8.53;5.57;;;;;;;2.94;82.54;98140.59;4944041;29;20448;-87
2021/12/20 03:53:41;;;;;;;10.27;5.33;;;;;;;4.54;83.76;98395.84;4941071;29;20937;-87
2021/12/20 03:56:07;;;;;;;7.47;4.87;;;;;;;5.53;84.07;98606.50;4958000;29;20412;-87
2021/12/20 03:58:33;;;;;;;11.10;4.63;;;;;;;5.44;83.75;98588.50;4940172;29;20910;-86
2021/12/20 04:01:02;;;;;;;8.73;5.40;;;;;;;4.23;84.22;98414.25;4924252;29;20188;-86
2021/12/20 04:03:30;;;;;;;11.50;5.50;;;;;;;4.10;84.16;98358.50;4962896;29;20452;-87
2021/12/20 04:05:56;;;;;;;9.33;5.77;;;;;;;5.43;84.23;98579.25;4970538;29;20400;-83
2021/12/20 04:08:21;;;;;;;9.63;6.03;;;;;;;5.54;83.98;98599.06;4950110;29;20999;-86
2021/12/20 04:10:50;;;;;;;11.27;6.73;;;;;;;6.05;84.16;98703.78;4945567;29;20270;-86
2021/12/20 04:13:16;;;;;;;8.97;5.23;;;;;;;4.02;85.06;98401.47;4957503;29;20257;-86
2021/12/20 04:15:41;;;;;;;10.93;6.47;;;;;;;3.34;85.68;98267.69;4957008;29;20436;-87
2021/12/20 04:18:07;;;;;;;10.87;6.20;;;;;;;5.60;85.73;98688.91;4923811;29;20271;-87
2021/12/20 04:20:33;;;;;;;11.07;6.53;;;;;;;3.58;84.67;98371.56;4957237;29;20223;-87
2021/12/20 04:23:00;;;;;;;8.60;5.00;;;;;;;2.86;84.83;98254.28;4938724;29;20243;-87
2021/12/20 04:25:25;;;;;;;8.97;5.47;;;;;;;1.75;84.60;98041.69;4938923;29;20324;-87
2021/12/20 04:27:52;;;;;;;10.70;5.57;;;;;;;5.78;84.31;98703.25;4956020;29;20448;-87
2021/12/20 04:30:18;;;;;;;11.30;6.30;;;;;;;4.74;84.00;98555.66;4938785;29;20455;-86
2021/12/20 04:32:45;;;;;;;8.83;5.07;;;;;;;4.56;84.04;98481.16;4941084;29;20344;-87
2021/12/20 04:35:13;;;;;;;10.50;5.33;;;;;;;5.77;84.52;98704.00;4959459;29;20165;-87
2021/12/20 04:37:41;;;;;;;11.60;5.77;;;;;;;5.22;84.97;98589.03;4942463;29;20419;-86
2021/12/20 04:40:11;;;;;;;10.80;5.53;;;;;;;5.77;85.02;98718.22;4939485;29;20527;-87
2021/12/20 04:42:37;;;;;;;11.00;7.23;;;;;;;3.71;85.59;98370.59;4956073;29;20928;-87
2021/12/20 04:45:03;;;;;;;12.33;6.67;;;;;;;5.36;85.85;98654.22;4938258;29;20562;-87
2021/12/20 04:47:29;;;;;;;10.57;5.50;;;;;;;5.00;85.39;98594.59;4938409;29;20315;-87
2021/12/20 04:49:54;;;;;;;11.80;6.37;;;;;;;4.50;85.89;98490.84;4938697;29;20427;-87
2021/12/20 04:52:19;;;;;;;11.63;6.27;;;;;;;4.23;85.61;98452.66;4955674;29;20189;-88
2021/12/20 04:54:45;;;;;;;10.27;5.83;;;;;;;3.88;86.35;98402.38;4956652;29;20181;-88
2021/12/20 04:57:13;;;;;;;17.57;9.97;;;;;;;5.27;86.34;98627.78;4947035;29;20216;-87
2021/12/20 04:59:40;;;;;;;12.30;7.33;;;;;;;5.19;86.99;98614.84;4943053;29;20622;-87
2021/12/20 05:02:06;;;;;;;13.60;6.27;;;;;;;4.61;86.82;98537.38;4956704;29;20404;-87
2021/12/20 05:04:33;;;;;;;14.30;7.50;;;;;;;4.80;86.26;98572.66;4942632;29;20499;-86
2021/12/20 05:06:59;;;;;;;10.73;6.67;;;;;;;5.89;86.49;98736.47;4939063;29;20436;-87
2021/12/20 05:09:28;;;;;;;13.60;6.97;;;;;;;5.08;85.92;98615.91;4938954;29;20439;-87
2021/12/20 05:12:09;;;;;;;12.70;6.63;;;;;;;5.99;85.66;98736.13;4955802;29;20188;-86
2021/12/20 05:14:36;;;;;;;10.63;5.97;;;;;;;5.29;85.81;98619.56;4958850;29;20405;-86
2021/12/20 05:17:03;;;;;;;22.90;9.73;;;;;;;6.04;85.33;98759.88;4958677;29;20894;-87
2021/12/20 05:19:28;;;;;;;17.97;9.90;;;;;;;4.89;85.05;98565.59;4938692;29;20416;-86
2021/12/20 05:21:53;;;;;;;16.23;8.50;;;;;;;5.97;85.53;98752.78;4953880;29;20815;-87
2021/12/20 05:24:23;;;;;;;16.93;8.83;;;;;;;4.96;84.79;98575.19;4938179;29;20208;-87
2021/12/20 05:26:50;;;;;;;16.03;8.80;;;;;;;5.82;83.86;98691.72;4954205;29;20298;-88
2021/12/20 05:29:17;;;;;;;14.60;7.63;;;;;;;6.19;83.69;98748.06;4939342;29;20472;-87
2021/12/20 05:31:43;;;;;;;17.97;10.57;;;;;;;3.68;84.11;98318.72;4937112;29;20446;-87
2021/12/20 05:34:08;;;;;;;16.10;7.63;;;;;;;5.93;84.15;98709.06;4936483;29;20912;-87
2021/12/20 05:36:34;;;;;;;20.57;11.53;;;;;;;5.22;83.98;98582.38;4938387;29;20184;-86
2021/12/20 05:38:59;;;;;;;11.87;7.10;;;;;;;6.27;83.37;98759.34;4945103;29;20184;-88
2021/12/20 05:41:26;;;;;;;12.33;6.77;;;;;;;6.26;83.37;98745.06;4939407;29;20248;-86
2021/12/20 05:43:51;;;;;;;26.83;14.43;;;;;;;6.24;84.05;98764.22;4936666;29;20694;-87
2021/12/20 05:46:17;;;;;;;17.70;9.30;;;;;;;6.28;83.76;98747.66;4936175;29;20443;-87
2021/12/20 05:48:42;;;;;;;13.00;7.63;;;;;;;5.01;83.29;98538.66;4919272;29;20673;-86
2021/12/20 05:51:09;;;;;;;11.70;6.13;;;;;;;5.57;83.44;98648.56;4931047;29;20263;-86
2021/12/20 05:53:35;;;;;;;14.87;8.03;;;;;;;3.19;83.29;98247.72;4965890;29;20245;-87
2021/12/20 05:56:00;;;;;;;15.60;8.90;;;;;;;4.96;83.79;98570.16;4944966;29;20471;-87
2021/12/20 05:58:26;;;;;;;16.20;8.50;;;;;;;6.21;83.79;98783.31;4945500;29;20175;-86
2021/12/20 06:00:51;;;;;;;14.50;7.27;;;;;;;3.03;84.16;98231.84;4942256;29;20259;-87
2021/12/20 06:03:17;;;;;;;58.80;24.70;;;;;;;4.45;83.95;98462.19;4958217;29;20283;-88
2021/12/20 06:05:44;;;;;;;15.37;8.13;;;;;;;4.30;84.48;98459.75;4938551;29;20429;-86
2021/12/20 06:08:10;;;;;;;20.37;9.23;;;;;;;3.61;84.93;98330.84;4940257;29;20170;-87
2021/12/20 06:10:36;;;;;;;19.40;10.47;;;;;;;4.60;85.36;98493.91;4940292;29;20496;-87
2021/12/20 06:13:06;;;;;;;15.23;8.47;;;;;;;3.79;85.53;98351.84;4941028;29;20192;-86
2021/12/20 06:15:33;;;;;;;13.37;7.40;;;;;;;4.82;85.13;98525.97;4939957;29;20421;-86
2021/12/20 06:17:58;;;;;;;20.27;11.27;;;;;;;3.75;85.61;98352.44;4939055;29;20428;-87
2021/12/20 06:20:24;;;;;;;15.90;8.57;;;;;;;6.07;85.20;98774.22;4939783;29;20511;-87
2021/12/20 06:22:52;;;;;;;20.63;10.60;;;;;;;4.46;84.30;98479.78;4938406;29;20237;-87
2021/12/20 06:25:19;;;;;;;21.40;10.37;;;;;;;6.10;84.17;98764.34;4938575;29;20197;-88
2021/12/20 06:27:47;;;;;;;16.17;8.03;;;;;;;3.86;83.93;98384.78;4926186;29;20447;-87
2021/12/20 06:30:14;;;;;;;19.30;9.67;;;;;;;4.89;84.18;98550.53;4977313;28;20455;-88
2021/12/20 06:32:44;;;;;;;14.07;7.93;;;;;;;4.61;83.48;98504.81;4984425;28;20480;-88
2021/12/20 06:35:10;;;;;;;13.53;6.00;;;;;;;3.41;83.59;98337.25;4967044;29;20431;-87
2021/12/20 06:37:36;;;;;;;13.37;7.87;;;;;;;2.65;83.51;98180.66;4976243;28;20416;-86
2021/12/20 06:40:04;;;;;;;12.00;6.70;;;;;;;6.12;82.51;98748.56;4976932;28;20263;-84
2021/12/20 06:42:29;;;;;;;13.23;6.43;;;;;;;5.99;82.21;98712.69;4976545;29;20423;-85
2021/12/20 06:44:55;;;;;;;10.87;6.10;;;;;;;5.09;81.28;98556.59;4969620;29;20456;-88
2021/12/20 06:47:21;;;;;;;15.73;7.40;;;;;;;4.96;82.11;98539.19;4989424;28;20658;-87
2021/12/20 06:49:47;;;;;;;14.23;7.70;;;;;;;3.42;81.73;98276.47;4957137;29;20209;-86
2021/12/20 06:52:12;;;;;;;12.07;6.87;;;;;;;4.28;81.62;98395.31;4985155;28;20404;-87
2021/12/20 06:54:38;;;;;;;11.67;5.47;;;;;;;4.01;81.68;98368.03;4980773;28;20184;-87
2021/12/20 06:57:04;;;;;;;18.93;8.00;;;;;;;4.86;80.81;98486.88;4953908;29;20204;-86
2021/12/20 06:59:31;;;;;;;12.47;6.03;;;;;;;5.35;81.97;98592.28;4972048;28;20668;-88
2021/12/20 07:01:58;;;;;;;7.63;5.10;;;;;;;4.03;81.06;98373.16;4975376;29;20205;-87
2021/12/20 07:04:23;;;;;;;9.23;5.27;;;;;;;6.42;82.15;98775.22;4964714;28;20468;-87
2021/12/20 07:06:49;;;;;;;9.13;4.80;;;;;;;6.54;81.99;98808.47;4953712;29;20416;-86
2021/12/20 07:09:15;;;;;;;7.07;4.57;;;;;;;4.91;82.05;98503.88;4947513;29;20185;-87
2021/12/20 07:11:42;;;;;;;12.80;6.80;;;;;;;5.91;83.31;98707.25;4944498;29;20181;-87
2021/12/20 07:14:09;;;;;;;7.83;4.40;;;;;;;5.99;83.48;98728.59;4953245;29;20174;-85
2021/12/20 07:16:37;;;;;;;7.27;4.13;;;;;;;6.39;84.34;98801.84;4941647;29;20439;-86
2021/12/20 07:19:05;;;;;;;16.37;8.63;;;;;;;2.68;82.76;98173.34;4941487;29;20433;-87
2021/12/20 07:21:31;;;;;;;8.20;4.53;;;;;;;4.41;82.77;98347.56;4938274;29;20511;-87
2021/12/20 07:23:57;;;;;;;7.30;4.27;;;;;;;5.24;76.32;98267.25;4946375;29;20471;-87
2021/12/20 07:26:35;;;;;;;9.77;4.70;;;;;;;8.30;75.54;98783.94;4949728;29;20264;-89
2021/12/20 07:29:00;;;;;;;6.13;3.60;;;;;;;7.95;77.20;98800.03;4970673;29;20231;-89
2021/12/20 07:31:26;;;;;;;8.87;4.17;;;;;;;5.65;78.76;98511.75;4954794;29;20411;-90
2021/12/20 07:33:52;;;;;;;7.93;4.73;;;;;;;3.41;79.24;98162.19;4950990;29;20173;-89
2021/12/20 07:36:21;;;;;;;10.30;5.10;;;;;;;5.24;78.78;98452.88;4933600;29;20184;-89
2021/12/20 07:38:47;;;;;;;8.53;5.13;;;;;;;6.64;78.61;98651.38;4975870;28;20173;-89
2021/12/20 07:41:13;;;;;;;8.70;5.20;;;;;;;6.22;78.82;98594.94;4943637;29;20236;-88
2021/12/20 07:43:38;;;;;;;14.37;6.57;;;;;;;7.50;78.74;98823.16;4946370;29;20228;-88
2021/12/20 07:46:03;;;;;;;8.20;5.10;;;;;;;3.37;77.88;98098.66;4948154;29;20235;-87
2021/12/20 07:48:29;;;;;;;8.93;4.67;;;;;;;5.12;77.62;98382.03;4961536;29;20165;-88
2021/12/20 07:50:54;;;;;;;7.33;4.30;;;;;;;6.82;77.23;98676.50;4943679;29;20323;-89
2021/12/20 07:53:20;;;;;;;7.40;3.83;;;;;;;5.64;77.37;98464.81;4972207;28;20173;-87
2021/12/20 07:55:47;;;;;;;14.43;6.27;;;;;;;6.53;77.17;98618.22;4942973;29;20188;-90
2021/12/20 07:58:12;;;;;;;7.37;4.63;;;;;;;7.92;77.33;98804.09;4979870;28;20181;-88
2021/12/20 08:00:38;;;;;;;9.17;4.00;;;;;;;7.94;76.28;98817.63;4972503;28;20268;-88
2021/12/20 08:03:04;;;;;;;11.57;4.80;;;;;;;4.75;76.51;98263.22;4983842;28;20199;-89
2021/12/20 08:05:29;;;;;;;8.23;5.10;;;;;;;6.76;76.24;98546.31;4980964;28;20208;-91
2021/12/20 08:07:55;;;;;;;9.57;5.67;;;;;;;7.09;75.43;98628.31;4982041;28;20240;-89
2021/12/20 08:10:24;;;;;;;13.93;7.50;;;;;;;6.33;74.86;98480.69;4979751;28;20173;-88
2021/12/20 08:12:50;;;;;;;14.27;7.93;;;;;;;8.17;75.05;98781.66;4973094;28;20173;-87
2021/12/20 08:15:16;;;;;;;10.23;5.93;;;;;;;8.40;74.97;98801.22;4930599;29;20192;-87
2021/12/20 08:17:42;;;;;;;9.17;4.80;;;;;;;8.53;74.77;98802.56;4940977;29;20165;-89
2021/12/20 08:20:10;;;;;;;7.57;5.10;;;;;;;7.61;75.72;98656.63;4939287;29;20196;-87
2021/12/20 08:22:36;;;;;;;6.13;3.80;;;;;;;6.29;73.49;98388.34;4939376;29;20554;-89
2021/12/20 08:25:03;;;;;;;6.87;3.33;;;;;;;7.07;73.19;98526.75;4936584;29;20287;-87
2021/12/20 08:27:29;;;;;;;6.57;4.57;;;;;;;7.19;73.09;98545.69;4949213;29;20179;-85
2021/12/20 08:29:55;;;;;;;12.03;6.00;;;;;;;7.53;73.14;98597.50;4959567;29;20282;-89
2021/12/20 08:32:20;;;;;;;5.83;4.17;;;;;;;8.10;73.18;98709.94;4940237;29;20176;-87
2021/12/20 08:34:46;;;;;;;17.23;7.23;;;;;;;8.83;73.64;98809.75;4934253;29;20184;-88
2021/12/20 08:37:12;;;;;;;7.03;4.60;;;;;;;6.12;72.62;98326.47;4926425;29;20173;-87
2021/12/20 08:39:38;;;;;;;7.30;4.10;;;;;;;7.90;72.27;98641.88;4927348;29;20185;-86
2021/12/20 08:42:04;;;;;;;5.83;4.10;;;;;;;7.50;71.47;98568.81;4924709;29;20693;-89
2021/12/20 08:44:31;;;;;;;9.00;4.73;;;;;;;7.09;70.71;98466.41;4943071;29;20203;-88
2021/12/20 08:46:58;;;;;;;6.43;4.20;;;;;;;6.08;70.20;98263.44;4961767;29;20261;-88
2021/12/20 08:49:25;;;;;;;9.70;4.67;;;;;;;9.06;69.31;98754.28;4953067;29;20187;-89
2021/12/20 08:51:51;;;;;;;6.47;4.70;;;;;;;7.51;69.18;98483.28;4953715;29;20180;-87
2021/12/20 08:54:17;;;;;;;8.67;5.63;;;;;;;8.23;69.01;98610.50;4958777;29;20185;-88
2021/12/20 08:56:43;;;;;;;9.90;6.70;;;;;;;7.88;69.07;98548.63;4942799;29;20158;-87
2021/12/20 08:59:19;;;;;;;5.47;3.27;;;;;;;5.13;67.47;98112.88;4947347;28;20248;-89
2021/12/20 09:01:45;;;;;;;6.67;4.03;;;;;;;9.63;68.42;98814.59;4947796;29;20649;-89
2021/12/20 09:04:11;;;;;;;6.47;4.10;;;;;;;8.22;68.32;98626.41;4943641;29;20200;-89
2021/12/20 09:06:39;;;;;;;7.23;3.83;;;;;;;7.00;68.78;98438.34;4961799;29;20172;-88
2021/12/20 09:09:07;;;;;;;8.70;5.50;;;;;;;7.94;67.88;98550.53;4940045;29;20196;-88
2021/12/20 09:11:33;;;;;;;11.70;6.07;;;;;;;8.23;69.13;98636.59;4940188;29;20259;-88
2021/12/20 09:13:59;;;;;;;12.37;7.53;;;;;;;8.35;68.76;98625.28;4945592;29;20663;-88
2021/12/20 09:16:25;;;;;;;19.97;11.40;;;;;;;7.56;68.12;98491.88;4961604;29;20173;-87
2021/12/20 09:18:51;;;;;;;11.47;7.23;;;;;;;7.59;68.87;98440.78;4936782;29;20183;-86
2021/12/20 09:21:17;;;;;;;9.60;6.00;;;;;;;9.29;69.00;98676.06;4966639;29;20184;-88
2021/12/20 09:23:45;;;;;;;21.03;12.43;;;;;;;9.41;68.29;98823.03;4926179;29;20315;-87
2021/12/20 09:26:10;;;;;;;25.83;13.30;;;;;;;7.30;69.57;98492.47;4942264;29;20612;-87
2021/12/20 09:28:36;;;;;;;17.53;10.00;;;;;;;5.91;69.65;98333.03;4928606;29;20291;-87
2021/12/20 09:31:03;;;;;;;26.20;12.50;;;;;;;7.69;70.16;98637.66;4943847;29;20183;-88
2021/12/20 09:33:29;;;;;;;20.90;11.33;;;;;;;8.16;70.88;98696.75;4945414;29;20592;-87
2021/12/20 09:35:55;;;;;;;16.60;9.20;;;;;;;6.83;70.49;98465.31;4943545;29;20631;-87
2021/12/20 09:38:21;;;;;;;7.40;4.50;;;;;;;9.30;68.84;98809.13;4944476;29;20553;-88
2021/12/20 09:43:40;;;;;;;11.17;6.67;;;;;;;9.57;67.91;98730.97;4945787;29;20666;-90
2021/12/20 09:46:05;;;;;;;21.80;12.20;;;;;;;8.04;67.44;98459.34;4945690;29;20195;-89
2021/12/20 09:48:35;;;;;;;12.00;7.93;;;;;;;8.44;66.42;98502.06;4943803;29;20204;-89
2021/12/20 09:51:03;;;;;;;14.07;7.70;;;;;;;9.05;63.87;98535.44;4944643;29;20173;-86
2021/12/20 09:53:29;;;;;;;7.80;5.13;;;;;;;9.33;62.23;98660.22;4943284;29;20169;-88
2021/12/20 09:55:57;;;;;;;10.13;6.90;;;;;;;7.24;62.74;98361.34;4942668;29;20192;-86
2021/12/20 09:58:24;;;;;;;7.90;5.80;;;;;;;10.31;62.67;98828.91;4944876;29;20173;-87
2021/12/20 10:00:51;;;;;;;11.30;7.07;;;;;;;7.77;61.20;98400.34;4944253;29;20177;-88
2021/12/20 10:03:21;;;;;;;13.40;8.40;;;;;;;8.93;62.39;98528.28;4949740;29;20193;-89
2021/12/20 10:05:48;;;;;;;16.60;10.40;;;;;;;10.86;61.11;98812.28;4949019;29;20267;-87
2021/12/20 10:08:19;;;;;;;9.80;5.93;;;;;;;8.41;59.66;98434.72;4948202;29;20161;-88
2021/12/20 10:10:48;;;;;;;15.60;8.83;;;;;;;9.60;59.71;98564.31;4952642;29;20177;-88
2021/12/20 10:13:19;;;;;;;11.93;7.90;;;;;;;11.00;60.05;98832.97;4955201;29;20176;-88
2021/12/20 10:15:45;;;;;;;12.77;7.70;;;;;;;9.66;60.81;98620.13;4961427;29;20191;-89
2021/12/20 10:18:13;;;;;;;8.50;5.83;;;;;;;9.62;59.85;98658.72;4958085;29;20180;-89
2021/12/20 10:20:39;;;;;;;6.73;4.47;;;;;;;9.02;58.97;98510.09;4953607;29;20180;-90
2021/12/20 10:23:13;;;;;;;14.23;8.33;;;;;;;10.10;58.59;98641.84;4954606;29;20176;-90
2021/12/20 10:25:40;;;;;;;9.13;5.47;;;;;;;8.01;58.13;98354.25;4987469;28;20988;-88
2021/12/20 10:28:15;;;;;;;11.80;6.73;;;;;;;9.49;57.42;98538.72;4938037;29;20216;-90
2021/12/20 10:30:42;;;;;;;11.97;7.10;;;;;;;9.26;57.25;98510.94;4948543;29;20173;-88
2021/12/20 10:33:14;;;;;;;12.40;6.40;;;;;;;8.29;56.57;98334.28;4930904;29;20177;-88
2021/12/20 10:35:55;;;;;;;13.60;7.73;;;;;;;10.04;56.50;98604.59;4948262;29;20286;-87
2021/12/20 10:38:38;;;;;;;19.37;9.33;;;;;;;11.58;56.73;98838.22;4942196;29;20639;-89
2021/12/20 10:41:20;;;;;;;12.37;6.83;;;;;;;10.09;55.98;98599.66;4962493;29;20196;-87
2021/12/20 10:43:54;;;;;;;17.27;8.17;;;;;;;7.85;56.85;98285.59;4929024;29;20299;-89
2021/12/20 10:46:29;;;;;;;34.27;13.17;;;;;;;10.03;56.62;98600.31;4950397;29;20185;-88
2021/12/20 10:49:14;;;;;;;40.13;15.47;;;;;;;11.02;57.22;98855.00;4942521;29;20222;-87
2021/12/20 10:51:43;;;;;;;12.87;7.90;;;;;;;10.98;56.52;98832.06;4943584;29;20182;-87
2021/12/20 10:54:13;;;;;;;4.47;3.40;;;;;;;10.05;57.17;98818.69;4941514;29;20165;-86
2021/12/20 10:56:48;;;;;;;6.80;4.00;;;;;;;8.55;58.06;98609.25;4938372;29;20181;-87
2021/12/20 10:59:14;;;;;;;12.87;6.63;;;;;;;8.27;59.44;98632.53;4942795;29;20688;-87
2021/12/20 11:04:37;;;;;;;50.03;27.37;;;;;;;9.42;60.41;98876.94;4943051;29;20266;-88
2021/12/20 11:09:42;;;;;;;9.83;6.40;;;;;;;9.02;61.36;98828.16;4942289;29;20638;-87
2021/12/20 11:12:15;;;;;;;13.67;9.03;;;;;;;9.13;60.48;98830.31;4922661;29;20182;-86
2021/12/20 11:14:47;;;;;;;21.33;10.60;;;;;;;9.22;61.27;98839.91;4922415;29;20170;-87
2021/12/20 11:17:16;;;;;;;16.80;7.77;;;;;;;9.21;60.92;98830.59;4932827;29;20192;-86
2021/12/20 11:19:44;;;;;;;16.40;7.93;;;;;;;5.72;61.02;98256.00;4942056;29;20177;-87
2021/12/20 11:22:10;;;;;;;37.40;15.57;;;;;;;9.28;61.77;98827.53;4938392;29;20178;-86
2021/12/20 11:24:35;;;;;;;24.03;11.93;;;;;;;9.40;61.11;98815.38;4939846;29;20209;-87
2021/12/20 11:27:04;;;;;;;13.97;7.07;;;;;;;7.86;59.97;98536.72;4945076;29;20204;-87
2021/12/20 11:29:30;;;;;;;12.87;6.20;;;;;;;7.72;59.48;98480.75;4944544;29;20235;-87
2021/12/20 11:31:57;;;;;;;18.73;9.30;;;;;;;7.98;58.90;98472.56;4944068;29;20176;-87
2021/12/20 11:34:24;;;;;;;18.43;8.73;;;;;;;9.52;57.97;98719.84;4943365;29;20180;-88
2021/12/20 11:36:50;;;;;;;10.10;5.87;;;;;;;9.69;57.93;98758.38;4940099;29;20646;-87
2021/12/20 11:39:16;;;;;;;9.80;4.83;;;;;;;8.52;58.40;98559.56;4940807;29;20268;-87
2021/12/20 11:41:42;;;;;;;24.80;10.43;;;;;;;8.72;59.55;98609.13;4941708;29;20669;-88
2021/12/20 11:44:11;;;;;;;17.77;8.80;;;;;;;10.09;59.81;98807.88;4958005;29;20701;-86
2021/12/20 11:46:55;;;;;;;35.63;14.03;;;;;;;9.70;60.45;98831.69;4939986;29;20605;-87
2021/12/20 11:49:26;;;;;;;24.23;11.37;;;;;;;8.45;60.79;98637.47;4941744;29;20187;-87
2021/12/20 11:52:01;;;;;;;24.27;9.87;;;;;;;9.12;60.21;98693.94;4942422;29;20169;-86
2021/12/20 11:54:40;;;;;;;31.70;12.93;;;;;;;9.81;60.81;98838.03;4951023;29;20163;-85